首页
METAR-TAF:

METAR-TAF

机场 :

克拉根福, 奥地利

纬度: 46-39N, 经度: 014-20E, 海拔: 448米

当前天气观测

该预报发布于38分钟前的06:20 UTC
风速3节,风向西,在南转西南西转西北之间变化
温度 10°C
湿度 93%
气压 1017 hPa
能见度10公里或以上
少量云层高于4000英尺
散云层高于6000英尺
多云层高于30000英尺

METAR: LOWK 200620Z 27003KT 210V300 9999 FEW040 SCT060 BKN300 10/09 Q1017 NOSIG

时间: 08:58 (06:58 UTC)

预报

该预报发布于1小时和43分钟前的05:15 UTC
预报有效从20日的 06点(UTC)到 21日的 06点(UTC)
风速2节,风向多变
能见度10公里或以上
少量云层高于4000英尺
散云层高于6000英尺
短暂存在
从 20日的 11点(UTC)到 20日的 17点(UTC)
风速12节,风向西南

TAF: LOWK 200515Z 2006/2106 VRB02KT 9999 FEW040 SCT060 TX20/2013Z TN08/2105Z TEMPO 2011/2017 22012KT

超过4000个机场的气象观测和天气预报(METAR&TAF报告)。

可查询的气象台以黄色和红色小点在地图上表示。

将鼠标移到小点上方,可查看气象台名称。

然后点击查看天气观测和预报。

如需切换地图:点击带黑十字的绿色按钮放大地图;点击带横线的绿色按钮缩小地图;或者点击绿色箭头查看邻近地区的地图。


METAR-TAF: